Time;durP1;ratioP1;P1;durP2;ratioP2;P2;SDS_P1;SDS_P2;PMS_P1;PMS_P2;Temp;Humidity;BMP_temperature;BMP_pressure;BME280_temperature;BME280_humidity;BME280_pressure;Samples;Min_cycle;Max_cycle;Signal;HPM_P1;HPM_P2
2021/12/27 00:00:34;;;;;;;70.30;48.47;;;;;;;;;;4908551;29;20040;-59
2021/12/27 00:03:02;;;;;;;77.72;50.30;;;;;;;;;;4907460;29;20044;-59
2021/12/27 00:05:30;;;;;;;76.90;52.85;;;;;;;;;;4904950;29;20060;-59
2021/12/27 00:07:57;;;;;;;70.35;50.60;;;;;;;;;;4907516;29;20047;-59
2021/12/27 00:10:25;;;;;;;73.38;50.10;;;;;;;;;;4907510;29;20067;-58
2021/12/27 00:12:52;;;;;;;86.57;56.78;;;;;;;;;;4908746;29;20115;-59
2021/12/27 00:15:19;;;;;;;74.88;50.70;;;;;;;;;;4904793;29;20451;-58
2021/12/27 00:17:47;;;;;;;71.88;47.97;;;;;;;;;;4908455;29;20036;-57
2021/12/27 00:20:16;;;;;;;77.05;52.38;;;;;;;;;;4908047;29;20056;-57
2021/12/27 00:22:45;;;;;;;80.10;52.35;;;;;;;;;;4910979;29;20062;-57
2021/12/27 00:25:12;;;;;;;85.65;52.38;;;;;;;;;;4909345;29;20044;-58
2021/12/27 00:27:40;;;;;;;100.05;61.88;;;;;;;;;;4906789;29;20055;-59
2021/12/27 00:30:08;;;;;;;83.75;55.83;;;;;;;;;;4909176;29;20067;-58
2021/12/27 00:32:37;;;;;;;87.72;61.42;;;;;;;;;;4915544;29;20399;-58
2021/12/27 00:35:05;;;;;;;91.22;58.70;;;;;;;;;;4906712;29;20048;-57
2021/12/27 00:37:32;;;;;;;88.32;57.65;;;;;;;;;;4904045;29;20044;-58
2021/12/27 00:39:59;;;;;;;82.60;53.33;;;;;;;;;;4908189;29;20907;-58
2021/12/27 00:42:26;;;;;;;79.82;54.72;;;;;;;;;;4908158;29;20048;-58
2021/12/27 00:44:53;;;;;;;69.80;49.83;;;;;;;;;;4904688;29;20427;-58
2021/12/27 00:47:20;;;;;;;72.25;51.03;;;;;;;;;;4904777;29;20064;-57
2021/12/27 00:49:47;;;;;;;66.78;44.95;;;;;;;;;;4908666;29;20048;-57
2021/12/27 00:52:14;;;;;;;59.92;42.42;;;;;;;;;;4909888;29;20104;-59
2021/12/27 00:54:41;;;;;;;68.20;47.30;;;;;;;;;;4911606;29;20439;-58
2021/12/27 00:57:07;;;;;;;60.72;42.55;;;;;;;;;;4907830;29;20063;-58
2021/12/27 00:59:34;;;;;;;60.47;43.40;;;;;;;;;;4904919;29;20056;-58
2021/12/27 01:02:01;;;;;;;63.92;44.17;;;;;;;;;;4908466;29;20605;-58
2021/12/27 01:04:29;;;;;;;63.83;45.42;;;;;;;;;;4911314;29;20588;-58
2021/12/27 01:06:56;;;;;;;68.38;45.47;;;;;;;;;;4907115;29;20055;-58
2021/12/27 01:09:46;;;;;;;61.13;45.22;;;;;;;;;;4904565;29;20047;-58
2021/12/27 01:15:21;;;;;;;60.58;43.22;;;;;;;;;;4909459;29;20048;-58
2021/12/27 01:17:50;;;;;;;65.22;46.60;;;;;;;;;;4913470;29;20075;-57
2021/12/27 01:20:20;;;;;;;59.88;44.63;;;;;;;;;;4918400;29;20051;-57
2021/12/27 01:22:47;;;;;;;71.90;47.97;;;;;;;;;;4918685;29;20056;-57
2021/12/27 01:25:15;;;;;;;68.82;47.38;;;;;;;;;;4919058;29;20048;-58
2021/12/27 01:27:43;;;;;;;74.70;48.88;;;;;;;;;;4918890;29;20048;-57
2021/12/27 01:30:16;;;;;;;70.90;46.10;;;;;;;;;;4919065;29;20086;-58
2021/12/27 01:32:50;;;;;;;72.90;48.90;;;;;;;;;;4913795;29;20048;-58
2021/12/27 01:35:17;;;;;;;76.93;47.03;;;;;;;;;;4918939;29;20070;-58
2021/12/27 01:37:44;;;;;;;74.07;50.70;;;;;;;;;;4918969;29;20048;-58
2021/12/27 01:40:13;;;;;;;68.90;49.63;;;;;;;;;;4918539;29;20172;-58
2021/12/27 01:43:20;;;;;;;66.32;48.13;;;;;;;;;;4918773;29;20059;-58
2021/12/27 01:45:58;;;;;;;67.10;49.85;;;;;;;;;;4841814;29;20065;-58
2021/12/27 01:48:29;;;;;;;69.15;49.60;;;;;;;;;;4842064;29;20050;-58
2021/12/27 01:50:57;;;;;;;73.57;49.67;;;;;;;;;;4887274;29;20048;-58
2021/12/27 01:53:27;;;;;;;79.22;53.38;;;;;;;;;;4918501;29;20099;-58
2021/12/27 01:55:54;;;;;;;73.80;49.95;;;;;;;;;;4918245;29;20052;-58
2021/12/27 01:58:23;;;;;;;72.10;52.22;;;;;;;;;;4918468;29;20051;-58
2021/12/27 02:00:52;;;;;;;74.70;47.53;;;;;;;;;;4918678;29;20059;-58
2021/12/27 02:03:22;;;;;;;61.85;44.78;;;;;;;;;;4918469;29;20051;-58
2021/12/27 02:05:49;;;;;;;65.88;46.42;;;;;;;;;;4918593;29;20052;-59
2021/12/27 02:08:16;;;;;;;66.45;47.92;;;;;;;;;;4918762;29;20380;-58
2021/12/27 02:10:43;;;;;;;62.05;44.28;;;;;;;;;;4918462;29;20043;-58
2021/12/27 02:13:10;;;;;;;58.60;39.50;;;;;;;;;;4918060;29;20055;-58
2021/12/27 02:15:37;;;;;;;54.35;36.55;;;;;;;;;;4918546;29;20071;-58
2021/12/27 02:18:05;;;;;;;56.38;35.33;;;;;;;;;;4918152;29;20424;-59
2021/12/27 02:20:33;;;;;;;47.30;33.22;;;;;;;;;;4918367;29;20520;-58
2021/12/27 02:23:03;;;;;;;49.90;32.92;;;;;;;;;;4917883;29;20539;-58
2021/12/27 02:25:31;;;;;;;48.70;32.42;;;;;;;;;;4916976;29;20050;-58
2021/12/27 02:28:00;;;;;;;44.15;31.02;;;;;;;;;;4917922;29;20036;-58
2021/12/27 02:30:26;;;;;;;46.80;32.30;;;;;;;;;;4917009;29;20407;-59
2021/12/27 02:33:05;;;;;;;58.78;31.58;;;;;;;;;;4917803;29;20537;-57
2021/12/27 02:35:38;;;;;;;42.13;28.23;;;;;;;;;;4918285;29;20063;-59
2021/12/27 02:38:08;;;;;;;41.40;27.13;;;;;;;;;;4918336;29;20410;-60
2021/12/27 02:40:37;;;;;;;38.50;27.40;;;;;;;;;;4917595;29;20051;-60
2021/12/27 02:43:16;;;;;;;40.58;28.92;;;;;;;;;;4917668;29;20079;-59
2021/12/27 02:45:47;;;;;;;46.17;28.08;;;;;;;;;;4917511;29;20100;-59
2021/12/27 02:48:16;;;;;;;38.38;27.35;;;;;;;;;;4918083;29;20048;-59
2021/12/27 02:50:45;;;;;;;42.75;26.83;;;;;;;;;;4917356;29;20044;-59
2021/12/27 02:53:13;;;;;;;43.67;28.20;;;;;;;;;;4918163;29;20048;-60
2021/12/27 02:55:41;;;;;;;36.83;26.33;;;;;;;;;;4917451;29;20055;-59
2021/12/27 02:58:08;;;;;;;41.22;28.25;;;;;;;;;;4917665;29;20044;-59
2021/12/27 03:00:55;;;;;;;41.08;28.65;;;;;;;;;;4917657;29;20498;-60
2021/12/27 03:03:23;;;;;;;35.25;26.85;;;;;;;;;;4917466;29;20055;-59
2021/12/27 03:05:50;;;;;;;37.53;26.70;;;;;;;;;;4917216;29;20112;-59
2021/12/27 03:08:17;;;;;;;42.60;27.10;;;;;;;;;;4917307;29;20048;-58
2021/12/27 03:10:48;;;;;;;38.22;28.60;;;;;;;;;;4917640;29;20055;-59
2021/12/27 03:13:22;;;;;;;38.65;27.45;;;;;;;;;;4917021;29;20090;-59
2021/12/27 03:15:54;;;;;;;38.50;28.95;;;;;;;;;;4917325;29;20045;-59
2021/12/27 03:18:22;;;;;;;39.22;27.65;;;;;;;;;;4917201;29;20054;-59
2021/12/27 03:20:51;;;;;;;42.20;30.70;;;;;;;;;;4917226;29;20499;-59
2021/12/27 03:23:19;;;;;;;37.13;27.08;;;;;;;;;;4916750;29;20048;-59
2021/12/27 03:25:46;;;;;;;36.30;25.48;;;;;;;;;;4916790;29;20040;-60
2021/12/27 03:28:13;;;;;;;36.67;26.10;;;;;;;;;;4917028;29;20047;-60
2021/12/27 03:30:40;;;;;;;35.92;26.58;;;;;;;;;;4916827;29;20447;-60
2021/12/27 03:33:08;;;;;;;32.97;23.30;;;;;;;;;;4916822;29;20571;-60
2021/12/27 03:35:38;;;;;;;38.22;25.30;;;;;;;;;;4916738;29;20052;-59
2021/12/27 03:38:08;;;;;;;38.00;27.40;;;;;;;;;;4917014;29;20139;-60
2021/12/27 03:40:37;;;;;;;39.17;28.30;;;;;;;;;;4916994;29;20044;-59
2021/12/27 03:43:04;;;;;;;43.28;28.23;;;;;;;;;;4916834;29;20048;-59
2021/12/27 03:45:34;;;;;;;37.85;27.55;;;;;;;;;;4916552;29;20058;-59
2021/12/27 03:48:03;;;;;;;37.38;26.15;;;;;;;;;;4916734;29;20048;-59
2021/12/27 03:50:30;;;;;;;36.30;26.85;;;;;;;;;;4916404;29;20055;-59
2021/12/27 03:52:57;;;;;;;37.78;25.83;;;;;;;;;;4916665;29;20479;-59
2021/12/27 03:55:25;;;;;;;38.72;26.85;;;;;;;;;;4916544;29;20044;-59
2021/12/27 03:57:55;;;;;;;32.80;24.58;;;;;;;;;;4916733;29;20040;-59
2021/12/27 04:02:57;;;;;;;32.40;21.80;;;;;;;;;;4916180;29;20086;-60
2021/12/27 04:05:25;;;;;;;27.58;20.90;;;;;;;;;;4916646;29;20072;-59
2021/12/27 04:08:09;;;;;;;29.30;22.25;;;;;;;;;;4916310;29;20051;-60
2021/12/27 04:10:40;;;;;;;21.63;17.48;;;;;;;;;;4916649;29;20051;-60
2021/12/27 04:13:09;;;;;;;23.17;18.20;;;;;;;;;;4916221;29;20056;-59
2021/12/27 04:15:37;;;;;;;23.92;19.80;;;;;;;;;;4916283;29;20562;-60
2021/12/27 04:18:04;;;;;;;24.98;18.70;;;;;;;;;;4916097;29;20049;-60
2021/12/27 04:20:31;;;;;;;22.58;17.67;;;;;;;;;;4916771;29;20127;-60
2021/12/27 04:22:58;;;;;;;21.20;17.88;;;;;;;;;;4915831;29;20165;-60
2021/12/27 04:25:25;;;;;;;22.52;18.15;;;;;;;;;;4916353;29;20044;-59
2021/12/27 04:27:52;;;;;;;21.90;18.42;;;;;;;;;;4916298;29;20044;-60
2021/12/27 04:30:20;;;;;;;22.45;17.65;;;;;;;;;;4916032;29;20052;-60
2021/12/27 04:32:48;;;;;;;27.58;19.25;;;;;;;;;;4916420;29;20510;-59
2021/12/27 04:35:20;;;;;;;30.42;22.92;;;;;;;;;;4916209;29;20044;-60
2021/12/27 04:37:49;;;;;;;29.17;21.13;;;;;;;;;;4916654;29;20063;-60
2021/12/27 04:40:18;;;;;;;29.58;22.23;;;;;;;;;;4916024;29;20051;-59
2021/12/27 04:42:48;;;;;;;34.42;27.00;;;;;;;;;;4916216;29;20059;-59
2021/12/27 04:45:16;;;;;;;33.25;23.90;;;;;;;;;;4915957;29;20048;-59
2021/12/27 04:47:43;;;;;;;35.45;26.27;;;;;;;;;;4916077;29;20040;-59
2021/12/27 04:50:10;;;;;;;40.13;30.42;;;;;;;;;;4916098;29;20048;-59
2021/12/27 04:52:38;;;;;;;46.75;31.92;;;;;;;;;;4916330;29;20054;-60
2021/12/27 04:55:05;;;;;;;46.28;30.45;;;;;;;;;;4918667;29;20103;-59
2021/12/27 04:57:32;;;;;;;47.47;33.45;;;;;;;;;;4919482;29;20491;-59
2021/12/27 05:00:00;;;;;;;44.08;32.35;;;;;;;;;;4920158;29;20048;-60
2021/12/27 05:02:26;;;;;;;45.58;34.08;;;;;;;;;;4919255;29;20040;-59
2021/12/27 05:04:54;;;;;;;41.90;30.00;;;;;;;;;;4919610;29;20559;-59
2021/12/27 05:07:20;;;;;;;41.33;30.50;;;;;;;;;;4919487;29;20048;-59
2021/12/27 05:09:47;;;;;;;39.88;28.67;;;;;;;;;;4919920;29;20060;-60
2021/12/27 05:12:14;;;;;;;36.25;27.35;;;;;;;;;;4919487;29;20052;-60
2021/12/27 05:14:41;;;;;;;42.78;28.88;;;;;;;;;;4919518;29;20043;-59
2021/12/27 05:17:08;;;;;;;39.55;28.42;;;;;;;;;;4919508;29;20055;-59
2021/12/27 05:19:38;;;;;;;34.08;24.90;;;;;;;;;;4919098;29;20099;-59
2021/12/27 05:22:05;;;;;;;35.22;25.27;;;;;;;;;;4919755;29;20055;-60
2021/12/27 05:24:32;;;;;;;41.50;26.13;;;;;;;;;;4918809;29;20432;-59
2021/12/27 05:26:58;;;;;;;39.90;27.20;;;;;;;;;;4918241;29;20067;-59
2021/12/27 05:29:25;;;;;;;39.53;28.50;;;;;;;;;;4919031;29;20048;-58
2021/12/27 05:31:52;;;;;;;36.63;24.52;;;;;;;;;;4919121;29;20107;-60
2021/12/27 05:34:24;;;;;;;40.08;29.55;;;;;;;;;;4918787;29;20044;-59
2021/12/27 05:36:51;;;;;;;35.28;25.30;;;;;;;;;;4919545;29;20095;-59
2021/12/27 05:39:20;;;;;;;37.85;28.85;;;;;;;;;;4918826;29;20044;-60
2021/12/27 05:41:47;;;;;;;42.05;30.65;;;;;;;;;;4918879;29;20107;-58
2021/12/27 05:44:15;;;;;;;48.40;32.78;;;;;;;;;;4919249;29;20064;-60
2021/12/27 05:46:43;;;;;;;50.42;35.95;;;;;;;;;;4918971;29;20403;-59
2021/12/27 05:49:10;;;;;;;53.75;36.58;;;;;;;;;;4918731;29;20048;-59
2021/12/27 05:51:37;;;;;;;56.25;37.55;;;;;;;;;;4918640;29;20506;-58
2021/12/27 05:54:04;;;;;;;56.42;39.17;;;;;;;;;;4918636;29;20514;-59
2021/12/27 05:56:31;;;;;;;57.67;43.53;;;;;;;;;;4918222;29;20051;-58
2021/12/27 05:58:58;;;;;;;55.25;39.95;;;;;;;;;;4918691;29;20075;-59
2021/12/27 06:01:25;;;;;;;55.55;40.13;;;;;;;;;;4910269;29;20056;-58
2021/12/27 06:03:55;;;;;;;55.22;36.90;;;;;;;;;;4918951;29;20116;-58
2021/12/27 06:06:22;;;;;;;56.05;42.00;;;;;;;;;;4918611;29;20387;-58
2021/12/27 06:08:49;;;;;;;58.40;40.58;;;;;;;;;;4918183;29;20055;-58
2021/12/27 06:11:15;;;;;;;62.90;39.47;;;;;;;;;;4918489;29;20048;-59
2021/12/27 06:13:43;;;;;;;66.43;44.83;;;;;;;;;;4918217;29;20067;-59
2021/12/27 06:16:11;;;;;;;57.22;43.05;;;;;;;;;;4918510;29;20055;-59
2021/12/27 06:18:38;;;;;;;54.88;39.35;;;;;;;;;;4918201;29;20135;-59
2021/12/27 06:21:05;;;;;;;65.03;44.45;;;;;;;;;;4918227;29;20142;-59
2021/12/27 06:23:36;;;;;;;62.10;44.70;;;;;;;;;;4917953;29;20048;-59
2021/12/27 06:26:03;;;;;;;59.08;41.05;;;;;;;;;;4918296;29;20052;-60
2021/12/27 06:28:32;;;;;;;59.70;41.00;;;;;;;;;;4917896;29;20156;-60
2021/12/27 06:30:59;;;;;;;62.10;44.28;;;;;;;;;;4917790;29;20052;-59
2021/12/27 06:33:28;;;;;;;62.13;44.90;;;;;;;;;;4918266;29;20119;-59
2021/12/27 06:35:59;;;;;;;65.68;41.60;;;;;;;;;;4917806;29;20072;-60
2021/12/27 06:38:26;;;;;;;61.97;43.92;;;;;;;;;;4918096;29;20529;-59
2021/12/27 06:40:53;;;;;;;60.90;41.90;;;;;;;;;;4917843;29;20044;-60
2021/12/27 06:43:20;;;;;;;62.10;44.92;;;;;;;;;;4917918;29;20051;-59
2021/12/27 06:45:47;;;;;;;68.55;44.10;;;;;;;;;;4917252;29;20048;-59
2021/12/27 06:48:15;;;;;;;68.03;46.88;;;;;;;;;;4917767;29;20091;-59
2021/12/27 06:50:42;;;;;;;65.28;43.53;;;;;;;;;;4917116;29;20483;-60
2021/12/27 06:53:09;;;;;;;69.93;41.80;;;;;;;;;;4918041;29;20055;-59
2021/12/27 06:55:43;;;;;;;68.63;41.95;;;;;;;;;;4917590;29;20133;-59
2021/12/27 06:58:10;;;;;;;67.07;47.35;;;;;;;;;;4917400;29;20036;-60
2021/12/27 07:00:38;;;;;;;69.68;45.50;;;;;;;;;;4917640;29;20164;-59
2021/12/27 07:03:05;;;;;;;76.80;47.50;;;;;;;;;;4917439;29;20051;-60
2021/12/27 07:05:32;;;;;;;72.70;49.22;;;;;;;;;;4917539;29;20047;-59
2021/12/27 07:07:59;;;;;;;74.80;44.55;;;;;;;;;;4917498;29;20044;-60
2021/12/27 07:10:27;;;;;;;72.13;46.53;;;;;;;;;;4917428;29;20497;-60
2021/12/27 07:12:54;;;;;;;75.05;47.80;;;;;;;;;;4916451;29;20184;-59
2021/12/27 07:15:21;;;;;;;74.18;49.35;;;;;;;;;;4916928;29;20503;-59
2021/12/27 07:17:48;;;;;;;70.90;45.25;;;;;;;;;;4916360;29;20048;-59
2021/12/27 07:20:15;;;;;;;70.55;46.00;;;;;;;;;;4916063;29;20099;-59
2021/12/27 07:22:42;;;;;;;69.28;45.35;;;;;;;;;;4916510;29;20563;-59
2021/12/27 07:25:09;;;;;;;62.33;44.65;;;;;;;;;;4915787;29;20506;-59
2021/12/27 07:27:36;;;;;;;66.07;45.35;;;;;;;;;;4916563;29;20044;-59
2021/12/27 07:30:05;;;;;;;64.38;45.03;;;;;;;;;;4915641;29;20075;-59
2021/12/27 07:32:32;;;;;;;75.78;48.55;;;;;;;;;;4916567;29;20040;-59
2021/12/27 07:34:59;;;;;;;64.43;44.65;;;;;;;;;;4916060;29;20055;-59
2021/12/27 07:37:26;;;;;;;84.55;51.90;;;;;;;;;;4917209;29;20131;-59
2021/12/27 07:39:53;;;;;;;77.63;49.97;;;;;;;;;;4916971;29;20103;-59
2021/12/27 07:42:20;;;;;;;82.10;51.67;;;;;;;;;;4916585;29;20059;-59
2021/12/27 07:44:47;;;;;;;85.25;54.10;;;;;;;;;;4916812;29;20051;-58
2021/12/27 07:47:14;;;;;;;80.55;53.13;;;;;;;;;;4916903;29;20063;-60
2021/12/27 07:49:41;;;;;;;90.05;54.35;;;;;;;;;;4909261;29;20048;-59
2021/12/27 07:52:08;;;;;;;93.93;55.67;;;;;;;;;;4905352;29;20041;-59
2021/12/27 07:54:35;;;;;;;91.03;55.00;;;;;;;;;;4914184;29;20047;-59
2021/12/27 07:57:02;;;;;;;84.97;55.08;;;;;;;;;;4909937;29;20491;-59
2021/12/27 07:59:29;;;;;;;95.05;55.88;;;;;;;;;;4909832;29;20044;-59
2021/12/27 08:01:57;;;;;;;89.57;54.10;;;;;;;;;;4905127;29;20052;-59
2021/12/27 08:04:25;;;;;;;95.50;60.45;;;;;;;;;;4908838;29;20103;-59
2021/12/27 08:06:52;;;;;;;89.45;53.15;;;;;;;;;;4911960;29;20044;-60
2021/12/27 08:09:19;;;;;;;88.47;54.08;;;;;;;;;;4909816;29;20490;-59
2021/12/27 08:11:46;;;;;;;96.28;56.20;;;;;;;;;;4911651;29;20829;-59
2021/12/27 08:14:13;;;;;;;101.63;57.47;;;;;;;;;;4912299;29;20372;-60
2021/12/27 08:16:40;;;;;;;89.90;57.70;;;;;;;;;;4911589;29;20040;-59
2021/12/27 08:19:07;;;;;;;90.60;54.90;;;;;;;;;;4914231;29;20051;-59
2021/12/27 08:21:34;;;;;;;89.50;54.67;;;;;;;;;;4914620;29;20048;-58
2021/12/27 08:24:01;;;;;;;91.93;52.50;;;;;;;;;;4914027;29;20067;-60
2021/12/27 08:26:28;;;;;;;82.20;52.45;;;;;;;;;;4914324;29;20040;-61
2021/12/27 08:28:55;;;;;;;92.10;53.92;;;;;;;;;;4909639;29;20399;-58
2021/12/27 08:31:22;;;;;;;87.85;54.45;;;;;;;;;;4908553;29;20048;-59
2021/12/27 08:33:50;;;;;;;78.75;54.15;;;;;;;;;;4917142;29;20056;-59
2021/12/27 08:36:16;;;;;;;86.78;53.75;;;;;;;;;;4916994;29;20428;-59
2021/12/27 08:38:48;;;;;;;79.88;52.78;;;;;;;;;;4913003;29;20043;-58
2021/12/27 08:41:16;;;;;;;80.95;53.03;;;;;;;;;;4916112;29;20403;-58
2021/12/27 08:43:44;;;;;;;85.85;51.20;;;;;;;;;;4917435;29;20049;-60
2021/12/27 08:46:11;;;;;;;80.00;50.85;;;;;;;;;;4917170;29;20047;-58
2021/12/27 08:48:40;;;;;;;80.47;47.20;;;;;;;;;;4908409;29;20045;-59
2021/12/27 08:51:07;;;;;;;107.38;53.50;;;;;;;;;;4906802;29;20051;-58
2021/12/27 08:53:34;;;;;;;83.55;50.83;;;;;;;;;;4916048;29;20432;-57
2021/12/27 08:56:00;;;;;;;76.53;51.80;;;;;;;;;;4913148;29;20051;-58
2021/12/27 08:58:27;;;;;;;78.30;51.20;;;;;;;;;;4910265;29;20420;-59
2021/12/27 09:00:54;;;;;;;73.25;49.72;;;;;;;;;;4920425;29;20052;-58
2021/12/27 09:03:21;;;;;;;71.18;50.78;;;;;;;;;;4906621;29;20056;-59
2021/12/27 09:05:48;;;;;;;82.30;56.65;;;;;;;;;;4912269;29;20053;-61
2021/12/27 09:08:15;;;;;;;78.88;53.28;;;;;;;;;;4907640;29;20048;-59
2021/12/27 09:10:42;;;;;;;73.65;50.28;;;;;;;;;;4910001;29;20052;-60
2021/12/27 09:13:09;;;;;;;75.22;51.05;;;;;;;;;;4909807;29;20044;-60
2021/12/27 09:15:36;;;;;;;74.43;52.33;;;;;;;;;;4913769;29;20056;-59
2021/12/27 09:18:03;;;;;;;67.28;49.55;;;;;;;;;;4915190;29;20051;-59
2021/12/27 09:20:30;;;;;;;66.25;49.42;;;;;;;;;;4915573;29;20044;-59
2021/12/27 09:22:57;;;;;;;63.67;50.53;;;;;;;;;;4911334;29;20048;-62
2021/12/27 09:25:24;;;;;;;70.63;52.10;;;;;;;;;;4914254;29;20052;-62
2021/12/27 09:27:51;;;;;;;71.00;53.58;;;;;;;;;;4915446;29;20055;-63
2021/12/27 09:30:18;;;;;;;74.43;56.08;;;;;;;;;;4906606;29;20067;-65
2021/12/27 09:32:45;;;;;;;75.78;60.50;;;;;;;;;;4917159;29;20036;-65
2021/12/27 09:35:12;;;;;;;71.55;55.58;;;;;;;;;;4916689;29;20138;-68
2021/12/27 09:37:39;;;;;;;68.22;53.30;;;;;;;;;;4917632;29;20448;-64
2021/12/27 09:40:06;;;;;;;63.85;49.40;;;;;;;;;;4917871;29;20040;-62
2021/12/27 09:42:35;;;;;;;66.88;49.22;;;;;;;;;;4915166;29;20113;-62
2021/12/27 09:45:04;;;;;;;64.30;50.60;;;;;;;;;;4913704;29;20452;-61
2021/12/27 09:47:32;;;;;;;63.75;49.97;;;;;;;;;;4904619;29;20127;-62
2021/12/27 09:50:27;;;;;;;62.10;47.88;;;;;;;;;;4909898;29;20500;-61
2021/12/27 09:52:54;;;;;;;65.47;49.58;;;;;;;;;;4915905;29;20399;-61
2021/12/27 09:55:21;;;;;;;59.88;46.72;;;;;;;;;;4916275;29;20116;-61
2021/12/27 09:57:48;;;;;;;64.55;50.47;;;;;;;;;;4909008;29;20432;-61
2021/12/27 10:00:16;;;;;;;64.47;50.30;;;;;;;;;;4911493;29;20048;-62
2021/12/27 10:02:43;;;;;;;59.70;46.22;;;;;;;;;;4912776;29;20044;-60
2021/12/27 10:05:10;;;;;;;63.20;48.63;;;;;;;;;;4912433;29;20071;-57
2021/12/27 10:07:41;;;;;;;62.90;48.25;;;;;;;;;;4916413;29;20040;-57
2021/12/27 10:10:16;;;;;;;59.28;46.55;;;;;;;;;;4909827;29;20052;-60
2021/12/27 10:12:44;;;;;;;66.40;50.10;;;;;;;;;;4908909;29;20082;-64
2021/12/27 10:15:15;;;;;;;58.72;46.38;;;;;;;;;;4913012;29;20105;-63
2021/12/27 10:17:44;;;;;;;60.75;47.67;;;;;;;;;;4908551;29;20542;-63
2021/12/27 10:20:14;;;;;;;62.20;49.20;;;;;;;;;;4903021;29;20044;-63
2021/12/27 10:22:45;;;;;;;59.80;45.00;;;;;;;;;;4912382;29;20037;-65
2021/12/27 10:25:27;;;;;;;59.58;48.85;;;;;;;;;;4912300;29;20048;-61
2021/12/27 10:27:56;;;;;;;61.85;49.17;;;;;;;;;;4908628;29;20054;-62
2021/12/27 10:30:25;;;;;;;65.60;51.85;;;;;;;;;;4903464;29;20515;-61
2021/12/27 10:33:13;;;;;;;58.97;47.47;;;;;;;;;;4905987;29;20056;-64
2021/12/27 10:35:41;;;;;;;75.30;51.45;;;;;;;;;;4913430;29;20063;-66
2021/12/27 10:38:15;;;;;;;69.53;51.92;;;;;;;;;;4916469;29;20044;-64
2021/12/27 10:41:00;;;;;;;60.95;46.67;;;;;;;;;;4903624;29;20079;-64
2021/12/27 10:43:33;;;;;;;61.88;49.10;;;;;;;;;;4903895;29;20064;-63
2021/12/27 10:46:04;;;;;;;66.88;47.28;;;;;;;;;;4909787;29;20071;-64
2021/12/27 10:48:38;;;;;;;67.63;49.33;;;;;;;;;;4915154;29;20048;-62
2021/12/27 10:51:05;;;;;;;66.57;49.33;;;;;;;;;;4909490;29;20048;-62
2021/12/27 10:53:46;;;;;;;69.15;48.65;;;;;;;;;;4909054;29;20068;-71
2021/12/27 10:56:14;;;;;;;64.13;51.88;;;;;;;;;;4911327;29;20051;-69
2021/12/27 10:59:07;;;;;;;64.28;49.83;;;;;;;;;;4912417;29;20065;-64
2021/12/27 11:01:40;;;;;;;107.47;78.40;;;;;;;;;;4899057;29;20067;-71
2021/12/27 11:04:07;;;;;;;79.03;60.70;;;;;;;;;;4908424;29;20132;-69
2021/12/27 11:06:40;;;;;;;73.60;54.40;;;;;;;;;;4910368;29;20048;-69
2021/12/27 11:09:07;;;;;;;66.97;52.42;;;;;;;;;;4900832;29;20055;-68
2021/12/27 11:11:34;;;;;;;75.43;58.80;;;;;;;;;;4909744;29;20037;-66
2021/12/27 11:14:01;;;;;;;88.18;57.80;;;;;;;;;;4910982;29;20095;-65
2021/12/27 11:16:28;;;;;;;74.75;58.75;;;;;;;;;;4914407;29;20066;-64
2021/12/27 11:18:56;;;;;;;80.13;58.30;;;;;;;;;;4909566;29;20069;-64
2021/12/27 11:21:30;;;;;;;78.72;59.08;;;;;;;;;;4908247;29;20365;-59
2021/12/27 11:24:00;;;;;;;93.35;62.08;;;;;;;;;;4901887;29;20056;-57
2021/12/27 11:26:30;;;;;;;88.18;60.40;;;;;;;;;;4913707;29;20054;-59
2021/12/27 11:29:14;;;;;;;90.68;59.00;;;;;;;;;;4911808;29;20047;-60
2021/12/27 11:31:43;;;;;;;94.97;62.97;;;;;;;;;;4908009;29;20056;-61
2021/12/27 11:34:12;;;;;;;97.35;65.18;;;;;;;;;;4900334;29;20045;-60
2021/12/27 11:36:44;;;;;;;98.40;66.45;;;;;;;;;;4909074;29;20083;-60
2021/12/27 11:39:30;;;;;;;97.10;64.47;;;;;;;;;;4906553;29;20502;-60
2021/12/27 11:41:57;;;;;;;90.82;58.33;;;;;;;;;;4909278;29;20508;-60
2021/12/27 11:44:36;;;;;;;99.15;63.28;;;;;;;;;;4902695;29;20504;-60
2021/12/27 11:47:04;;;;;;;99.70;62.90;;;;;;;;;;4914146;29;20384;-58
2021/12/27 11:49:34;;;;;;;95.85;62.05;;;;;;;;;;4916082;29;20071;-60
2021/12/27 11:52:16;;;;;;;85.85;63.83;;;;;;;;;;4916513;29;20044;-59
2021/12/27 11:55:02;;;;;;;92.97;63.25;;;;;;;;;;4915111;29;20052;-59
2021/12/27 11:57:41;;;;;;;93.93;62.45;;;;;;;;;;4914663;29;20082;-60
2021/12/27 12:00:20;;;;;;;84.63;60.03;;;;;;;;;;4914290;29;20083;-60
2021/12/27 12:02:52;;;;;;;88.50;63.00;;;;;;;;;;4915099;29;20044;-59
2021/12/27 12:05:39;;;;;;;87.80;63.33;;;;;;;;;;4914902;29;20371;-60
2021/12/27 12:08:07;;;;;;;85.20;60.13;;;;;;;;;;4915651;29;20048;-58
2021/12/27 12:10:34;;;;;;;75.45;58.15;;;;;;;;;;4915651;29;20051;-59
2021/12/27 12:13:28;;;;;;;78.00;60.15;;;;;;;;;;4916234;29;20044;-58
2021/12/27 12:16:07;;;;;;;82.10;64.30;;;;;;;;;;4913017;29;20044;-60
2021/12/27 12:18:40;;;;;;;77.72;57.72;;;;;;;;;;4916316;29;20051;-59
2021/12/27 12:21:33;;;;;;;80.00;59.80;;;;;;;;;;4915922;29;20044;-59
2021/12/27 12:24:10;;;;;;;93.45;58.85;;;;;;;;;;4910366;29;20392;-59
2021/12/27 12:26:46;;;;;;;80.70;58.40;;;;;;;;;;4915964;29;20052;-59
2021/12/27 12:29:29;;;;;;;79.80;59.38;;;;;;;;;;4915966;29;20060;-59
2021/12/27 12:32:02;;;;;;;79.93;60.78;;;;;;;;;;4915737;29;20054;-59
2021/12/27 12:34:29;;;;;;;82.68;61.75;;;;;;;;;;4916319;29;20099;-60
2021/12/27 12:37:00;;;;;;;84.07;60.92;;;;;;;;;;4916060;29;20487;-59
2021/12/27 12:39:50;;;;;;;83.85;61.72;;;;;;;;;;4915683;29;20055;-59
2021/12/27 12:42:25;;;;;;;87.78;62.10;;;;;;;;;;4916400;29;20491;-59
2021/12/27 12:44:59;;;;;;;95.32;63.47;;;;;;;;;;4915734;29;20048;-59
2021/12/27 12:47:41;;;;;;;84.05;59.92;;;;;;;;;;4916394;29;20380;-59
2021/12/27 12:50:15;;;;;;;83.10;60.90;;;;;;;;;;4916158;29;20115;-59
2021/12/27 12:52:57;;;;;;;82.45;62.97;;;;;;;;;;4916180;29;20055;-59
2021/12/27 12:55:30;;;;;;;86.95;61.13;;;;;;;;;;4946098;29;20044;-59
2021/12/27 12:57:57;;;;;;;84.22;64.05;;;;;;;;;;4916255;29;20052;-58
2021/12/27 13:00:30;;;;;;;86.65;62.35;;;;;;;;;;4916051;29;20054;-59
2021/12/27 13:03:12;;;;;;;83.93;60.85;;;;;;;;;;4915889;29;20178;-59
2021/12/27 13:05:39;;;;;;;84.47;60.42;;;;;;;;;;4915425;29;20095;-59
2021/12/27 13:08:13;;;;;;;87.53;59.92;;;;;;;;;;4916064;29;20044;-59
2021/12/27 13:10:41;;;;;;;86.43;62.93;;;;;;;;;;4915520;29;20044;-55
2021/12/27 13:13:10;;;;;;;85.30;63.47;;;;;;;;;;4916125;29;20044;-59
2021/12/27 13:15:59;;;;;;;88.07;61.20;;;;;;;;;;4917363;29;20492;-59
2021/12/27 13:18:28;;;;;;;81.70;59.42;;;;;;;;;;4919384;29;20489;-59
2021/12/27 13:20:57;;;;;;;89.97;63.60;;;;;;;;;;4918945;29;20048;-59
2021/12/27 13:23:29;;;;;;;93.07;64.22;;;;;;;;;;4919190;29;20411;-59
2021/12/27 13:25:57;;;;;;;88.93;64.32;;;;;;;;;;4927923;29;20044;-58
2021/12/27 13:28:44;;;;;;;91.10;67.85;;;;;;;;;;4924998;29;20091;-55
2021/12/27 13:31:37;;;;;;;84.00;63.42;;;;;;;;;;4918262;29;20044;-59
2021/12/27 13:34:07;;;;;;;87.47;63.70;;;;;;;;;;4915892;29;20056;-59
2021/12/27 13:36:39;;;;;;;81.85;59.65;;;;;;;;;;4948945;29;20423;-60
2021/12/27 13:39:15;;;;;;;85.00;63.30;;;;;;;;;;4917105;29;20052;-58
2021/12/27 13:41:52;;;;;;;81.00;60.47;;;;;;;;;;4919341;29;20052;-59
2021/12/27 13:44:32;;;;;;;87.85;62.60;;;;;;;;;;4917693;29;20045;-57
2021/12/27 13:47:03;;;;;;;85.90;61.45;;;;;;;;;;4917334;29;20059;-60
2021/12/27 13:49:30;;;;;;;96.65;68.18;;;;;;;;;;4917860;29;20047;-60
2021/12/27 13:52:03;;;;;;;97.05;69.07;;;;;;;;;;4917936;29;20368;-59
2021/12/27 13:54:50;;;;;;;103.22;71.53;;;;;;;;;;4913286;29;20041;-59
2021/12/27 13:57:17;;;;;;;96.80;67.68;;;;;;;;;;4915037;29;20047;-60
2021/12/27 13:59:49;;;;;;;95.82;67.88;;;;;;;;;;4917191;29;20451;-60
2021/12/27 14:02:17;;;;;;;90.70;68.60;;;;;;;;;;4914749;29;20048;-59
2021/12/27 14:04:44;;;;;;;88.70;66.00;;;;;;;;;;4917903;29;20730;-60
2021/12/27 14:07:21;;;;;;;89.55;68.05;;;;;;;;;;4916719;29;20058;-58
2021/12/27 14:09:48;;;;;;;92.18;63.75;;;;;;;;;;4915897;29;20058;-60
2021/12/27 14:12:22;;;;;;;83.30;62.08;;;;;;;;;;4916404;29;20048;-60
2021/12/27 14:14:50;;;;;;;90.20;65.13;;;;;;;;;;4916387;29;20083;-59
2021/12/27 14:17:18;;;;;;;93.00;65.85;;;;;;;;;;4916055;29;20056;-61
2021/12/27 14:20:06;;;;;;;96.03;63.00;;;;;;;;;;4915979;29;20051;-58
2021/12/27 14:22:43;;;;;;;89.18;64.68;;;;;;;;;;4910194;29;20056;-60
2021/12/27 14:25:13;;;;;;;89.28;62.35;;;;;;;;;;4918042;29;20048;-60
2021/12/27 14:27:43;;;;;;;86.88;66.05;;;;;;;;;;4946655;28;20139;-60
2021/12/27 14:30:11;;;;;;;96.35;67.43;;;;;;;;;;4917883;29;20040;-60
2021/12/27 14:32:41;;;;;;;96.35;64.72;;;;;;;;;;4916970;29;20059;-59
2021/12/27 14:35:41;;;;;;;90.00;61.72;;;;;;;;;;4905007;29;20551;-65
2021/12/27 14:38:11;;;;;;;92.90;60.97;;;;;;;;;;4908889;29;20626;-62